createdAt,value
2022-08-17T00:01:03.199Z,38.33
2022-08-17T00:16:06.697Z,40.4
2022-08-17T00:31:08.898Z,40.53
2022-08-17T00:46:11.096Z,39.08
2022-08-17T01:01:21.294Z,38.51
2022-08-17T01:16:24.176Z,38.16
2022-08-17T01:31:26.401Z,37.23
2022-08-17T01:46:28.574Z,35.53
2022-08-17T02:01:30.837Z,34.71
2022-08-17T02:16:36.624Z,33.83
2022-08-17T02:31:39.781Z,32.69
2022-08-17T02:46:41.970Z,31.74
2022-08-17T03:01:44.270Z,30.85
2022-08-17T03:16:46.713Z,30.57
2022-08-17T03:31:49.775Z,29.47
2022-08-17T03:46:52.116Z,28.81
2022-08-17T04:01:54.473Z,28.04
2022-08-17T04:16:56.727Z,27.85
2022-08-17T04:31:58.969Z,27.05
2022-08-17T04:47:01.168Z,27.26
2022-08-17T05:02:03.511Z,26.4
2022-08-17T05:17:07.336Z,24.95
2022-08-17T05:32:38.288Z,25.48
2022-08-17T05:47:43.884Z,24.99
2022-08-17T06:02:47.979Z,24.69
2022-08-17T06:17:50.456Z,24.21
2022-08-17T06:32:52.897Z,24.04
2022-08-17T06:47:55.154Z,23.28
2022-08-17T07:02:57.557Z,23.39
2022-08-17T07:18:00.121Z,22.65
2022-08-17T07:33:02.635Z,22.68
2022-08-17T07:48:04.853Z,23.21
2022-08-17T08:03:07.497Z,22.94
2022-08-17T08:18:09.865Z,22.02
2022-08-17T08:33:12.151Z,22.32
2022-08-17T08:48:23.111Z,21.4
2022-08-17T09:04:10.935Z,20.84
2022-08-17T09:19:22.269Z,20.76
2022-08-17T09:34:28.158Z,21.21
2022-08-17T09:49:34.430Z,20.44
2022-08-17T10:04:36.655Z,20.46
2022-08-17T10:19:39.990Z,20.19
2022-08-17T10:34:46.664Z,20.37
2022-08-17T10:49:48.873Z,20.26
2022-08-17T11:04:51.073Z,19.93
2022-08-17T11:19:53.285Z,19.66
2022-08-17T11:34:55.466Z,19.77
2022-08-17T11:49:57.702Z,19.74
2022-08-17T12:04:59.960Z,19.29
2022-08-17T12:20:03.035Z,18.92
2022-08-17T12:35:06.887Z,19.21
2022-08-17T12:50:29.824Z,19.31
2022-08-17T13:05:32.479Z,19.07
2022-08-17T13:20:34.712Z,19.12
2022-08-17T13:35:39.947Z,18.65
2022-08-17T13:50:42.793Z,19.48
2022-08-17T14:05:44.971Z,21.89
2022-08-17T14:20:47.202Z,21.49
2022-08-17T14:35:49.416Z,22.19
2022-08-17T14:50:51.656Z,24.43
2022-08-17T15:05:53.869Z,22.77
2022-08-17T15:20:56.109Z,23.43
2022-08-17T15:35:58.332Z,27.28
2022-08-17T15:51:00.648Z,25.83
2022-08-17T16:06:02.900Z,28.27
2022-08-17T16:21:05.285Z,29.67
2022-08-17T16:36:07.502Z,29.01
2022-08-17T16:51:09.710Z,29.58
2022-08-17T17:06:12.087Z,29.92
2022-08-17T17:21:14.334Z,30.22
2022-08-17T17:36:16.589Z,30.63
2022-08-17T17:52:05.247Z,30.44
2022-08-17T18:07:13.635Z,31.27
2022-08-17T18:22:15.870Z,31.76
2022-08-17T18:37:19.512Z,32.41
2022-08-17T18:52:21.790Z,32.72
2022-08-17T19:07:24.048Z,33.09
2022-08-17T19:22:28.774Z,33.57
2022-08-17T19:37:31.392Z,34.23
2022-08-17T19:52:33.625Z,34.96
2022-08-17T20:07:35.888Z,36.08
2022-08-17T20:22:50.398Z,36.7
2022-08-17T20:37:54.756Z,37.42
2022-08-17T20:52:56.952Z,38.4
2022-08-17T21:07:59.420Z,38.84
2022-08-17T21:23:01.724Z,39.73
2022-08-17T21:38:03.966Z,39.65
2022-08-17T21:53:06.367Z,38.82
2022-08-17T22:08:08.570Z,40.55
2022-08-17T22:23:19.110Z,41.04
2022-08-17T22:38:21.311Z,41.22
2022-08-17T22:53:23.570Z,41.24
2022-08-17T23:08:25.847Z,41.74
2022-08-17T23:23:28.053Z,41.93
2022-08-17T23:38:30.297Z,41.26
2022-08-17T23:53:32.637Z,39.96
